Time;durP1;ratioP1;P1;durP2;ratioP2;P2;SDS_P1;SDS_P2;PMS_P1;PMS_P2;Temp;Humidity;BMP_temperature;BMP_pressure;BME280_temperature;BME280_humidity;BME280_pressure;Samples;Min_cycle;Max_cycle;Signal;HPM_P1;HPM_P2
2023/01/13 00:01:55;;;;;;;0.90;0.90;;;8.80;99.90;;;;;;5239594;28;20442;-54
2023/01/13 00:04:25;;;;;;;1.43;1.23;;;8.70;99.90;;;;;;5227077;28;20227;-54
2023/01/13 00:06:56;;;;;;;1.00;0.90;;;8.70;99.90;;;;;;5237190;28;20265;-53
2023/01/13 00:09:27;;;;;;;1.37;0.80;;;8.90;99.90;;;;;;5222998;28;20199;-52
2023/01/13 00:11:57;;;;;;;1.47;0.77;;;8.70;99.90;;;;;;5230957;28;20185;-53
2023/01/13 00:14:29;;;;;;;1.17;1.03;;;8.70;99.90;;;;;;5245031;28;20180;-53
2023/01/13 00:17:00;;;;;;;1.33;1.23;;;8.70;99.90;;;;;;5224644;28;20269;-53
2023/01/13 00:19:30;;;;;;;1.10;0.93;;;8.70;99.90;;;;;;5244506;28;20525;-53
2023/01/13 00:22:01;;;;;;;0.93;0.93;;;8.70;99.90;;;;;;5224125;28;20436;-53
2023/01/13 00:24:32;;;;;;;1.70;1.13;;;8.60;99.90;;;;;;5221809;28;20198;-52
2023/01/13 00:27:02;;;;;;;2.50;0.80;;;8.70;99.90;;;;;;5237310;28;20186;-53
2023/01/13 00:29:33;;;;;;;1.50;1.50;;;8.70;99.90;;;;;;5236741;28;20277;-53
2023/01/13 00:32:04;;;;;;;1.90;1.80;;;8.70;99.90;;;;;;5223854;28;20185;-54
2023/01/13 00:34:34;;;;;;;1.07;1.00;;;8.70;99.90;;;;;;5240995;28;20178;-55
2023/01/13 00:37:05;;;;;;;0.93;0.90;;;8.70;99.90;;;;;;5225597;28;20248;-52
2023/01/13 00:39:36;;;;;;;1.80;0.90;;;8.70;99.90;;;;;;5217711;28;20198;-53
2023/01/13 00:45:13;;;;;;;0.83;0.83;;;8.60;99.90;;;;;;5178650;28;20212;-54
2023/01/13 00:47:44;;;;;;;1.10;1.00;;;8.60;99.90;;;;;;5217569;28;20560;-53
2023/01/13 00:50:15;;;;;;;0.90;0.90;;;8.60;99.90;;;;;;5237421;28;20197;-53
2023/01/13 00:52:46;;;;;;;1.00;1.00;;;8.50;99.90;;;;;;5241282;28;20178;-52
2023/01/13 00:55:16;;;;;;;1.23;1.13;;;8.60;99.90;;;;;;5223385;28;20170;-54
2023/01/13 00:57:47;;;;;;;1.33;1.17;;;8.50;99.90;;;;;;5240213;28;20546;-53
2023/01/13 01:00:18;;;;;;;1.03;1.03;;;8.60;99.90;;;;;;5243396;28;20232;-53
2023/01/13 01:02:49;;;;;;;1.20;1.10;;;8.60;99.90;;;;;;5240869;28;20621;-51
2023/01/13 01:05:19;;;;;;;1.10;1.10;;;8.60;99.90;;;;;;5240358;28;21007;-54
2023/01/13 01:07:50;;;;;;;1.00;0.80;;;8.60;99.90;;;;;;5241419;28;20194;-53
2023/01/13 01:10:21;;;;;;;0.90;0.90;;;8.60;99.90;;;;;;5241733;28;20226;-53
2023/01/13 01:12:51;;;;;;;1.00;1.00;;;8.60;99.90;;;;;;5236389;28;20209;-52
2023/01/13 01:15:22;;;;;;;5.23;1.10;;;8.60;99.90;;;;;;5223270;28;20210;-53
2023/01/13 01:17:53;;;;;;;0.80;0.80;;;8.60;99.90;;;;;;5221748;28;20302;-53
2023/01/13 01:20:23;;;;;;;0.60;0.60;;;8.50;99.90;;;;;;5233763;28;20292;-53
2023/01/13 01:22:54;;;;;;;1.00;1.00;;;8.50;99.90;;;;;;5241712;28;20182;-53
2023/01/13 01:25:25;;;;;;;1.33;0.73;;;8.50;99.90;;;;;;5226056;28;20532;-53
2023/01/13 01:27:55;;;;;;;0.80;0.80;;;8.50;99.90;;;;;;5246896;28;20206;-50
2023/01/13 01:30:26;;;;;;;0.70;0.70;;;8.60;99.90;;;;;;5238065;28;20185;-53
2023/01/13 01:32:57;;;;;;;1.80;0.60;;;8.50;99.90;;;;;;5245483;28;20178;-53
2023/01/13 01:35:27;;;;;;;0.50;0.50;;;8.60;99.90;;;;;;5227543;28;20186;-52
2023/01/13 01:37:58;;;;;;;1.17;1.07;;;8.50;99.90;;;;;;5240981;28;20245;-53
2023/01/13 01:40:29;;;;;;;1.00;0.90;;;8.60;99.90;;;;;;5244110;28;20186;-54
2023/01/13 01:45:51;;;;;;;0.57;0.57;;;8.60;99.90;;;;;;5244654;28;20174;-54
2023/01/13 01:48:22;;;;;;;0.60;0.60;;;8.60;99.90;;;;;;5221417;28;20455;-52
2023/01/13 01:50:53;;;;;;;1.03;0.90;;;8.60;99.90;;;;;;5243637;28;20437;-52
2023/01/13 01:53:27;;;;;;;0.57;0.57;;;8.60;99.90;;;;;;5224704;28;21396;-53
2023/01/13 01:55:59;;;;;;;0.70;0.70;;;8.60;99.90;;;;;;5246927;28;20439;-53
2023/01/13 01:58:50;;;;;;;0.67;0.67;;;8.60;99.90;;;;;;5205824;28;20466;-53
2023/01/13 02:01:21;;;;;;;0.67;0.67;;;8.60;99.90;;;;;;5231006;28;20959;-53
2023/01/13 02:04:02;;;;;;;2.00;0.63;;;8.60;99.90;;;;;;5249411;28;20509;-51
2023/01/13 02:06:33;;;;;;;1.47;0.90;;;8.50;99.90;;;;;;5249607;28;20952;-52
2023/01/13 02:09:04;;;;;;;2.60;0.90;;;8.60;99.90;;;;;;5229815;28;20459;-53
2023/01/13 02:14:27;;;;;;;0.70;0.70;;;8.60;99.90;;;;;;5241800;28;20190;-52
2023/01/13 02:17:18;;;;;;;1.17;0.70;;;8.60;99.90;;;;;;5248747;28;20523;-52
2023/01/13 02:20:24;;;;;;;0.90;0.90;;;8.60;99.90;;;;;;5247983;28;20480;-54
2023/01/13 02:23:03;;;;;;;2.10;1.30;;;8.60;99.90;;;;;;5244597;28;20759;-53
2023/01/13 02:26:11;;;;;;;0.97;0.47;;;8.60;99.90;;;;;;5226327;28;22509;-52
2023/01/13 02:32:02;;;;;;;0.80;0.80;;;8.60;99.90;;;;;;5224150;28;20432;-53
2023/01/13 02:34:41;;;;;;;0.53;0.53;;;8.50;99.90;;;;;;5237637;28;20439;-50
2023/01/13 02:37:41;;;;;;;0.97;0.97;;;8.50;99.90;;;;;;5243769;28;20523;-53
2023/01/13 02:40:34;;;;;;;0.50;0.50;;;8.50;99.90;;;;;;5241217;28;20452;-52
2023/01/13 02:46:30;;;;;;;0.60;0.37;;;8.50;99.90;;;;;;5239415;28;20448;-51
2023/01/13 02:49:06;;;;;;;0.83;0.73;;;8.50;99.90;;;;;;5236849;28;20456;-53
2023/01/13 02:51:39;;;;;;;0.40;0.40;;;8.50;99.90;;;;;;5228926;28;20427;-52
2023/01/13 02:54:18;;;;;;;0.70;0.30;;;8.60;99.90;;;;;;5241885;28;20432;-51
2023/01/13 02:56:51;;;;;;;0.60;0.60;;;8.70;99.90;;;;;;5242345;28;20462;-52
2023/01/13 02:59:25;;;;;;;0.50;0.50;;;8.60;99.90;;;;;;5241173;28;20496;-52
2023/01/13 03:01:56;;;;;;;0.50;0.47;;;8.60;99.90;;;;;;5242764;28;20515;-53
2023/01/13 03:04:49;;;;;;;1.20;1.10;;;8.70;99.90;;;;;;5242864;28;20518;-52
2023/01/13 03:07:32;;;;;;;2.03;0.60;;;8.70;99.90;;;;;;5243532;28;20428;-53
2023/01/13 03:10:08;;;;;;;0.40;0.40;;;8.80;99.90;;;;;;5248231;28;20448;-50
2023/01/13 03:12:56;;;;;;;0.30;0.30;;;8.90;99.90;;;;;;5244529;28;20443;-53
2023/01/13 03:16:05;;;;;;;1.13;0.40;;;8.80;99.90;;;;;;5245522;28;20512;-52
2023/01/13 03:19:10;;;;;;;0.47;0.47;;;8.80;99.90;;;;;;5201369;28;20999;-51
2023/01/13 03:22:29;;;;;;;0.60;0.60;;;9.00;99.90;;;;;;5229267;28;20499;-51
2023/01/13 03:25:13;;;;;;;0.40;0.40;;;9.00;99.90;;;;;;5232125;28;20471;-52
2023/01/13 03:27:54;;;;;;;0.40;0.40;;;9.00;99.90;;;;;;5243502;28;20428;-52
2023/01/13 03:30:31;;;;;;;0.60;0.60;;;9.10;99.90;;;;;;5230885;28;20448;-49
2023/01/13 03:33:14;;;;;;;0.30;0.30;;;9.20;99.90;;;;;;5225917;28;20444;-48
2023/01/13 03:35:50;;;;;;;0.37;0.37;;;9.30;99.90;;;;;;5233247;28;20436;-49
2023/01/13 03:38:28;;;;;;;0.87;0.40;;;9.30;99.90;;;;;;5237221;28;21002;-49
2023/01/13 03:41:10;;;;;;;0.77;0.40;;;9.20;99.90;;;;;;5243018;28;20519;-53
2023/01/13 03:46:58;;;;;;;2.50;0.60;;;9.10;99.90;;;;;;5245314;28;20444;-52
2023/01/13 03:49:43;;;;;;;0.40;0.40;;;9.00;99.90;;;;;;5243022;28;20459;-53
2023/01/13 03:52:45;;;;;;;0.47;0.47;;;9.10;99.90;;;;;;5226537;28;20428;-48
2023/01/13 03:55:21;;;;;;;0.40;0.40;;;9.00;99.90;;;;;;5230199;28;20504;-49
2023/01/13 03:58:13;;;;;;;4.00;0.60;;;9.00;99.90;;;;;;5241668;28;20516;-48
2023/01/13 04:01:02;;;;;;;0.30;0.30;;;9.10;99.90;;;;;;5215012;28;20433;-50
2023/01/13 04:03:43;;;;;;;0.70;0.40;;;9.00;99.90;;;;;;5236776;28;20566;-50
2023/01/13 04:06:24;;;;;;;0.30;0.30;;;9.00;99.90;;;;;;5237094;28;20525;-49
2023/01/13 04:09:02;;;;;;;0.20;0.20;;;8.90;99.90;;;;;;5223486;28;20513;-50
2023/01/13 04:11:43;;;;;;;0.77;0.40;;;9.00;99.90;;;;;;5242731;28;20527;-49
2023/01/13 04:14:16;;;;;;;0.87;0.87;;;8.90;99.90;;;;;;5242062;28;20824;-50
2023/01/13 04:16:47;;;;;;;0.40;0.40;;;9.00;99.90;;;;;;5242332;28;20432;-49
2023/01/13 04:19:18;;;;;;;0.30;0.30;;;9.00;99.90;;;;;;5227082;28;20499;-49
2023/01/13 04:21:49;;;;;;;1.20;0.60;;;9.10;99.90;;;;;;5238724;28;20948;-50
2023/01/13 04:24:19;;;;;;;0.30;0.30;;;9.10;99.90;;;;;;5241732;28;20232;-49
2023/01/13 04:26:50;;;;;;;0.43;0.33;;;9.00;99.90;;;;;;5228359;28;20179;-49
2023/01/13 04:29:21;;;;;;;0.20;0.20;;;9.10;99.90;;;;;;5246352;28;20214;-49
2023/01/13 04:31:52;;;;;;;0.70;0.70;;;9.00;99.90;;;;;;5225208;28;20178;-49
2023/01/13 04:34:23;;;;;;;0.40;0.40;;;8.90;99.90;;;;;;5243519;28;20489;-49
2023/01/13 04:36:54;;;;;;;0.40;0.40;;;8.90;99.90;;;;;;5220925;28;20716;-50
2023/01/13 04:39:24;;;;;;;0.30;0.30;;;8.80;99.90;;;;;;5239184;28;20224;-48
2023/01/13 04:41:58;;;;;;;0.30;0.30;;;8.80;99.90;;;;;;5228782;28;20201;-50
2023/01/13 04:44:34;;;;;;;0.83;0.50;;;8.80;99.90;;;;;;5235035;28;20207;-49
2023/01/13 04:47:04;;;;;;;6.07;0.67;;;8.80;99.90;;;;;;5225513;28;20512;-50
2023/01/13 04:49:35;;;;;;;0.40;0.40;;;8.80;99.90;;;;;;5240298;28;20887;-49
2023/01/13 04:52:06;;;;;;;0.50;0.40;;;8.70;99.90;;;;;;5245623;28;20174;-51
2023/01/13 04:54:36;;;;;;;0.53;0.50;;;8.60;99.90;;;;;;5225610;28;20182;-50
2023/01/13 04:57:07;;;;;;;0.60;0.30;;;8.60;99.90;;;;;;5225585;28;20186;-50
2023/01/13 04:59:40;;;;;;;0.50;0.50;;;8.60;99.90;;;;;;5233783;28;20295;-49
2023/01/13 05:02:18;;;;;;;0.43;0.43;;;8.60;99.90;;;;;;5249130;28;20638;-49
2023/01/13 05:04:49;;;;;;;0.40;0.40;;;8.60;99.90;;;;;;5230127;28;20459;-48
2023/01/13 05:07:19;;;;;;;0.60;0.50;;;8.60;99.90;;;;;;5251233;28;20408;-48
2023/01/13 05:09:50;;;;;;;0.50;0.50;;;8.60;99.90;;;;;;5217335;28;20198;-49
2023/01/13 05:18:02;;;;;;;0.37;0.37;;;8.80;99.90;;;;;;5245435;28;20997;-49
2023/01/13 05:20:33;;;;;;;0.27;0.27;;;8.80;99.90;;;;;;5216511;28;20424;-50
2023/01/13 05:25:53;;;;;;;0.73;0.40;;;9.00;99.90;;;;;;5246998;28;20232;-51
2023/01/13 05:28:24;;;;;;;1.60;0.40;;;9.10;99.90;;;;;;5243774;28;20948;-50
2023/01/13 05:30:56;;;;;;;0.30;0.30;;;9.10;99.90;;;;;;5223825;28;20267;-51
2023/01/13 05:33:26;;;;;;;0.80;0.50;;;9.20;99.90;;;;;;5226991;28;20186;-50
2023/01/13 05:36:01;;;;;;;1.50;0.37;;;9.30;99.90;;;;;;5244321;28;21001;-51
2023/01/13 05:38:32;;;;;;;4.63;0.90;;;9.20;99.90;;;;;;5245304;28;20202;-50
2023/01/13 05:43:51;;;;;;;0.40;0.40;;;9.30;99.90;;;;;;5236754;28;20255;-50
2023/01/13 05:46:22;;;;;;;0.47;0.47;;;9.30;99.90;;;;;;5243920;28;20433;-50
2023/01/13 05:48:53;;;;;;;0.83;0.50;;;9.30;99.90;;;;;;5243180;28;20198;-50
2023/01/13 05:51:25;;;;;;;0.40;0.40;;;9.30;99.90;;;;;;5222499;28;20227;-49
2023/01/13 05:53:55;;;;;;;0.40;0.40;;;9.30;99.90;;;;;;5224247;28;20191;-50
2023/01/13 05:56:26;;;;;;;2.53;0.60;;;9.20;99.90;;;;;;5246332;28;20440;-49
2023/01/13 05:58:56;;;;;;;0.60;0.60;;;9.20;99.90;;;;;;5241047;28;20268;-50
2023/01/13 06:01:27;;;;;;;0.50;0.50;;;9.10;99.90;;;;;;5241934;28;20551;-50
2023/01/13 06:03:58;;;;;;;0.50;0.50;;;9.20;99.90;;;;;;5225871;28;20217;-49
2023/01/13 06:06:31;;;;;;;0.50;0.50;;;9.20;99.90;;;;;;5207367;28;20607;-52
2023/01/13 06:09:02;;;;;;;1.60;0.57;;;9.20;99.90;;;;;;5238294;28;20279;-51
2023/01/13 06:11:32;;;;;;;1.23;0.37;;;9.10;99.90;;;;;;5221744;28;20699;-49
2023/01/13 06:14:03;;;;;;;0.60;0.60;;;9.10;99.90;;;;;;5245792;28;20655;-51
2023/01/13 06:16:34;;;;;;;0.73;0.73;;;9.00;99.90;;;;;;5234544;28;20190;-50
2023/01/13 06:19:07;;;;;;;0.47;0.47;;;9.00;99.90;;;;;;5240311;28;20218;-50
2023/01/13 06:21:39;;;;;;;0.50;0.50;;;9.00;99.90;;;;;;5241771;28;20686;-50
2023/01/13 06:24:10;;;;;;;0.57;0.57;;;8.90;99.90;;;;;;5227009;28;20525;-50
2023/01/13 06:26:40;;;;;;;0.67;0.60;;;8.80;99.90;;;;;;5244714;28;20433;-48
2023/01/13 06:29:13;;;;;;;0.70;0.70;;;8.80;99.90;;;;;;5221242;28;20198;-51
2023/01/13 06:31:44;;;;;;;0.60;0.60;;;8.80;99.90;;;;;;5240304;28;20178;-50
2023/01/13 06:34:15;;;;;;;1.13;1.03;;;8.80;99.90;;;;;;5237139;28;20494;-50
2023/01/13 06:36:51;;;;;;;2.80;0.90;;;8.80;99.90;;;;;;5216803;28;20243;-51
2023/01/13 06:39:26;;;;;;;0.53;0.53;;;8.90;99.90;;;;;;5230276;28;20532;-49
2023/01/13 06:45:04;;;;;;;0.90;0.90;;;9.00;99.90;;;;;;5199285;28;20478;-53
2023/01/13 06:47:35;;;;;;;1.20;1.20;;;8.90;99.90;;;;;;5235651;28;20475;-50
2023/01/13 06:50:06;;;;;;;1.13;1.13;;;9.00;99.90;;;;;;5246397;28;20432;-51
2023/01/13 06:52:37;;;;;;;1.27;1.27;;;9.10;99.90;;;;;;5249893;28;20494;-50
2023/01/13 06:55:08;;;;;;;1.37;1.20;;;9.10;99.90;;;;;;5248808;28;20478;-50
2023/01/13 06:57:53;;;;;;;7.40;1.17;;;9.10;99.90;;;;;;5217795;28;20495;-49
2023/01/13 07:00:25;;;;;;;3.00;1.33;;;9.00;99.90;;;;;;5210065;28;20524;-51
2023/01/13 07:03:07;;;;;;;0.70;0.70;;;8.90;99.90;;;;;;5226814;28;20936;-49
2023/01/13 07:05:38;;;;;;;0.40;0.40;;;8.80;99.90;;;;;;5220582;28;20439;-51
2023/01/13 07:08:10;;;;;;;0.60;0.60;;;8.80;99.90;;;;;;5239578;28;20460;-53
2023/01/13 07:10:40;;;;;;;0.60;0.60;;;8.90;99.90;;;;;;5237178;28;20448;-52
2023/01/13 07:16:03;;;;;;;0.77;0.77;;;8.90;99.90;;;;;;5244560;28;20182;-50
2023/01/13 07:18:34;;;;;;;0.50;0.50;;;8.90;99.90;;;;;;5241812;28;20460;-50
2023/01/13 07:21:07;;;;;;;0.70;0.70;;;8.90;99.90;;;;;;5227046;28;20471;-53
2023/01/13 07:23:40;;;;;;;0.80;0.80;;;8.90;99.90;;;;;;5242181;28;20464;-55
2023/01/13 07:26:11;;;;;;;0.50;0.50;;;9.00;99.90;;;;;;5242824;28;20455;-52
2023/01/13 07:28:42;;;;;;;1.63;0.70;;;9.00;99.90;;;;;;5229032;28;20445;-51
2023/01/13 07:31:19;;;;;;;1.20;1.00;;;9.00;99.90;;;;;;5208400;28;20443;-53
2023/01/13 07:33:50;;;;;;;1.40;1.27;;;9.10;99.90;;;;;;5209575;28;20182;-51
2023/01/13 07:36:20;;;;;;;1.50;1.40;;;9.10;99.90;;;;;;5239630;28;20493;-50
2023/01/13 07:38:51;;;;;;;1.23;1.23;;;9.10;99.90;;;;;;5220523;28;20206;-51
2023/01/13 07:44:11;;;;;;;9.53;4.90;;;9.00;99.90;;;;;;5229017;28;20271;-51
2023/01/13 07:46:42;;;;;;;3.23;2.60;;;9.00;99.90;;;;;;5233035;28;20433;-52
2023/01/13 07:49:13;;;;;;;5.13;4.57;;;9.10;99.90;;;;;;5238609;28;20218;-51
2023/01/13 07:51:43;;;;;;;3.20;2.80;;;9.10;99.90;;;;;;5234541;28;20539;-53
2023/01/13 07:54:14;;;;;;;1.73;1.60;;;9.10;99.90;;;;;;5240935;28;20205;-51
2023/01/13 07:56:44;;;;;;;0.90;0.90;;;9.10;99.90;;;;;;5224265;28;20323;-56
2023/01/13 07:59:16;;;;;;;1.47;1.20;;;9.10;99.90;;;;;;5231476;28;20233;-50
2023/01/13 08:01:48;;;;;;;1.40;1.30;;;9.30;99.90;;;;;;5209973;28;20639;-49
2023/01/13 08:04:19;;;;;;;2.77;1.40;;;9.30;99.90;;;;;;5228363;28;20456;-51
2023/01/13 08:06:50;;;;;;;1.40;1.40;;;9.20;99.90;;;;;;5237820;28;20803;-52
2023/01/13 08:09:20;;;;;;;1.07;0.97;;;9.20;99.90;;;;;;5231562;28;21863;-56
2023/01/13 08:13:16;;;;;;;5.50;1.30;;;9.20;99.90;;;;;;5236544;28;20441;-52
2023/01/13 08:14:44;;;;;;;1.10;1.00;;;9.20;99.90;;;;;;5240448;28;20214;-52
2023/01/13 08:17:15;;;;;;;0.73;0.73;;;9.30;99.90;;;;;;5217092;28;20464;-54
2023/01/13 08:19:46;;;;;;;1.33;0.73;;;9.40;99.90;;;;;;5216847;28;20830;-52
2023/01/13 08:22:16;;;;;;;1.47;1.40;;;9.60;99.90;;;;;;5215993;28;20829;-51
2023/01/13 08:24:47;;;;;;;5.40;1.47;;;9.70;99.90;;;;;;5235972;28;20210;-51
2023/01/13 08:27:19;;;;;;;1.40;1.03;;;9.80;99.90;;;;;;5233887;28;20587;-50
2023/01/13 08:29:49;;;;;;;6.93;2.00;;;9.90;99.90;;;;;;5235919;28;20190;-52
2023/01/13 08:32:20;;;;;;;2.77;2.13;;;9.80;99.90;;;;;;5246668;28;20432;-52
2023/01/13 08:34:51;;;;;;;4.80;3.20;;;9.90;99.90;;;;;;5244564;28;20182;-52
2023/01/13 08:37:22;;;;;;;2.93;2.70;;;9.80;99.90;;;;;;5248880;28;20182;-54
2023/01/13 08:39:52;;;;;;;2.17;2.07;;;9.70;99.90;;;;;;5251609;28;20202;-51
2023/01/13 08:42:25;;;;;;;1.07;1.00;;;9.70;99.90;;;;;;5230261;28;20198;-52
2023/01/13 08:44:56;;;;;;;1.27;1.07;;;9.70;99.90;;;;;;5224899;28;20625;-51
2023/01/13 08:47:27;;;;;;;2.17;1.43;;;9.60;99.90;;;;;;5246272;28;20436;-51
2023/01/13 08:49:58;;;;;;;1.40;1.30;;;9.60;99.90;;;;;;5243860;28;20206;-52
2023/01/13 08:52:29;;;;;;;2.07;1.97;;;9.60;99.90;;;;;;5243576;28;20444;-53
2023/01/13 08:55:00;;;;;;;18.27;1.63;;;9.50;99.90;;;;;;5211797;28;20210;-51
2023/01/13 08:57:30;;;;;;;6.03;0.93;;;9.60;99.90;;;;;;5246648;28;20466;-51
2023/01/13 09:00:03;;;;;;;2.73;1.47;;;9.60;99.90;;;;;;5232350;28;20804;-53
2023/01/13 09:02:34;;;;;;;0.90;0.90;;;9.50;99.90;;;;;;5231786;28;20182;-55
2023/01/13 09:05:06;;;;;;;0.70;0.70;;;9.50;99.90;;;;;;5246925;28;20505;-52
2023/01/13 09:07:38;;;;;;;1.23;1.00;;;9.50;99.90;;;;;;5241923;28;20585;-52
2023/01/13 09:10:09;;;;;;;1.53;1.43;;;9.40;99.90;;;;;;5243195;28;20439;-52
2023/01/13 09:15:29;;;;;;;0.80;0.80;;;9.60;99.90;;;;;;5248532;28;20468;-52
2023/01/13 09:18:01;;;;;;;1.83;0.93;;;9.70;99.90;;;;;;5246902;28;20486;-52
2023/01/13 09:20:32;;;;;;;0.80;0.50;;;9.60;99.90;;;;;;5235259;28;20188;-51
2023/01/13 09:23:03;;;;;;;1.43;0.70;;;9.40;99.90;;;;;;5245562;28;21000;-51
2023/01/13 09:25:35;;;;;;;2.43;0.70;;;9.30;99.90;;;;;;5235325;28;20214;-51
2023/01/13 09:28:07;;;;;;;7.43;1.10;;;9.30;99.90;;;;;;5229908;28;20477;-52
2023/01/13 09:30:37;;;;;;;1.37;1.13;;;9.30;99.90;;;;;;5220121;28;20462;-55
2023/01/13 09:36:00;;;;;;;3.90;0.93;;;9.30;99.90;;;;;;5252177;28;20194;-51
2023/01/13 09:38:31;;;;;;;1.40;1.00;;;9.40;99.90;;;;;;5252744;28;20491;-51
2023/01/13 09:43:52;;;;;;;1.67;1.17;;;9.50;99.90;;;;;;5257965;28;20443;-52
2023/01/13 09:43:56;;;;;;;4.37;1.27;;;9.40;99.90;;;;;;5257249;28;20202;-51
2023/01/13 09:46:48;;;;;;;3.93;0.87;;;9.60;99.90;;;;;;5234687;28;20440;-52
2023/01/13 09:49:36;;;;;;;2.13;1.13;;;9.60;99.90;;;;;;5250990;28;20455;-52
2023/01/13 09:52:22;;;;;;;6.07;1.13;;;9.60;99.90;;;;;;5228275;28;20452;-52
2023/01/13 09:55:08;;;;;;;1.30;0.93;;;9.50;99.90;;;;;;5236266;28;20955;-51
2023/01/13 09:57:39;;;;;;;1.50;0.70;;;9.50;99.90;;;;;;5228494;28;20437;-52
2023/01/13 10:00:10;;;;;;;1.57;1.50;;;9.40;99.90;;;;;;5233836;28;20525;-50
2023/01/13 10:02:55;;;;;;;4.97;1.00;;;9.40;99.90;;;;;;5251916;28;20439;-52
2023/01/13 10:05:55;;;;;;;1.90;1.50;;;9.40;99.90;;;;;;5248497;28;20517;-51
2023/01/13 10:08:32;;;;;;;2.70;0.90;;;9.40;99.90;;;;;;5250997;28;20456;-50
2023/01/13 10:13:59;;;;;;;2.50;1.07;;;9.20;99.90;;;;;;5252224;28;20929;-50
2023/01/13 10:16:57;;;;;;;1.47;1.30;;;9.10;99.90;;;;;;5237136;28;20439;-52
2023/01/13 10:19:35;;;;;;;1.50;1.40;;;9.10;99.90;;;;;;5248513;28;20484;-51
2023/01/13 10:22:16;;;;;;;0.87;0.87;;;9.10;99.90;;;;;;5233323;28;20936;-51
2023/01/13 10:25:06;;;;;;;1.00;0.87;;;9.10;99.90;;;;;;5232221;28;20536;-53
2023/01/13 10:27:38;;;;;;;2.60;1.00;;;9.10;99.90;;;;;;5251832;28;20531;-52
2023/01/13 10:30:21;;;;;;;4.27;0.70;;;9.10;99.90;;;;;;5224869;28;20509;-51
2023/01/13 10:32:55;;;;;;;4.77;1.63;;;9.20;99.90;;;;;;5249664;28;20511;-52
2023/01/13 10:35:50;;;;;;;1.10;1.00;;;9.20;99.90;;;;;;5255468;28;20436;-51
2023/01/13 10:38:25;;;;;;;3.50;1.20;;;9.20;99.90;;;;;;5244625;28;20457;-51
2023/01/13 10:40:59;;;;;;;2.70;1.77;;;9.20;99.90;;;;;;5246910;28;20446;-50
2023/01/13 10:43:30;;;;;;;4.93;1.23;;;9.30;99.90;;;;;;5247348;28;20428;-51
2023/01/13 10:46:09;;;;;;;4.37;1.00;;;9.30;99.90;;;;;;5245026;28;20447;-55
2023/01/13 10:48:42;;;;;;;1.17;0.67;;;9.50;99.90;;;;;;5246122;28;20475;-51
2023/01/13 10:51:38;;;;;;;9.03;1.20;;;9.60;99.90;;;;;;5240758;28;20530;-53
2023/01/13 10:54:12;;;;;;;0.80;0.80;;;9.60;99.90;;;;;;5234756;28;20441;-52
2023/01/13 10:56:44;;;;;;;1.00;1.00;;;9.60;99.90;;;;;;5242747;28;21008;-52
2023/01/13 10:59:25;;;;;;;4.20;1.10;;;9.80;99.90;;;;;;5249387;28;20470;-52
2023/01/13 11:02:12;;;;;;;2.50;1.17;;;9.80;99.90;;;;;;5239301;28;20451;-54
2023/01/13 11:04:53;;;;;;;0.80;0.80;;;9.80;99.90;;;;;;5250597;28;21298;-50
2023/01/13 11:07:51;;;;;;;1.27;0.80;;;9.90;99.90;;;;;;5250204;28;21000;-51
2023/01/13 11:10:31;;;;;;;0.63;0.63;;;10.00;99.90;;;;;;5244868;28;20420;-50
2023/01/13 11:13:11;;;;;;;2.20;1.07;;;10.20;99.90;;;;;;5228391;28;20459;-51
2023/01/13 11:16:11;;;;;;;0.70;0.70;;;10.30;99.90;;;;;;5236749;28;20439;-51
2023/01/13 11:19:10;;;;;;;1.10;1.10;;;10.40;99.90;;;;;;5244803;28;20514;-51
2023/01/13 11:22:12;;;;;;;7.50;1.30;;;10.50;99.90;;;;;;5244060;28;20439;-52
2023/01/13 11:24:43;;;;;;;6.20;1.53;;;10.50;99.90;;;;;;5243997;28;20598;-50
2023/01/13 11:27:23;;;;;;;3.17;1.23;;;10.80;99.90;;;;;;5255348;28;21016;-52
2023/01/13 11:30:19;;;;;;;4.13;1.00;;;10.70;99.90;;;;;;5243967;28;20464;-50
2023/01/13 11:33:03;;;;;;;3.20;1.47;;;10.60;99.90;;;;;;5256894;28;20465;-52
2023/01/13 11:35:46;;;;;;;3.10;1.50;;;10.40;99.90;;;;;;5254418;28;20425;-50
2023/01/13 11:38:48;;;;;;;2.70;1.10;;;10.30;99.90;;;;;;5234667;28;20850;-51
2023/01/13 11:41:37;;;;;;;2.10;1.07;;;10.20;99.90;;;;;;5219546;28;20849;-51
2023/01/13 11:44:23;;;;;;;2.80;1.40;;;10.10;99.90;;;;;;5238717;28;20483;-51
2023/01/13 11:46:54;;;;;;;2.10;1.90;;;10.10;99.90;;;;;;5247377;28;20920;-51
2023/01/13 11:49:29;;;;;;;5.57;1.60;;;10.10;99.90;;;;;;5253950;28;20483;-52
2023/01/13 11:52:20;;;;;;;4.23;1.80;;;10.10;99.90;;;;;;5254648;28;20826;-50
2023/01/13 11:55:05;;;;;;;2.70;0.93;;;10.20;99.90;;;;;;5254989;28;20951;-52
2023/01/13 11:58:11;;;;;;;6.03;1.80;;;10.20;99.90;;;;;;5235469;28;20436;-51
2023/01/13 12:01:25;;;;;;;5.80;2.20;;;10.30;99.90;;;;;;5236574;28;20823;-53
2023/01/13 12:04:17;;;;;;;6.33;2.27;;;10.40;99.90;;;;;;5258358;28;20515;-52
2023/01/13 12:07:14;;;;;;;4.10;1.63;;;10.40;99.90;;;;;;5252036;28;20865;-53
2023/01/13 12:10:24;;;;;;;7.90;1.70;;;10.40;99.90;;;;;;5231934;28;20448;-50
2023/01/13 12:12:59;;;;;;;3.20;1.47;;;10.40;99.90;;;;;;5259338;28;20466;-51
2023/01/13 12:15:53;;;;;;;18.40;5.73;;;10.40;99.90;;;;;;5255296;28;20440;-51
2023/01/13 12:18:26;;;;;;;5.20;2.73;;;10.40;99.90;;;;;;5255522;28;20571;-54
2023/01/13 12:21:16;;;;;;;3.27;1.30;;;10.50;99.90;;;;;;5250907;28;20979;-51
2023/01/13 12:24:25;;;;;;;8.30;2.40;;;10.50;99.90;;;;;;5238193;28;20461;-52
2023/01/13 12:27:02;;;;;;;7.20;3.60;;;10.50;99.90;;;;;;5169090;28;20447;-51
2023/01/13 12:29:37;;;;;;;5.77;1.23;;;10.40;99.90;;;;;;5164907;28;21145;-51
2023/01/13 12:32:15;;;;;;;2.67;2.17;;;10.20;99.90;;;;;;5212815;28;20431;-51
2023/01/13 12:35:04;;;;;;;9.93;1.63;;;10.10;99.90;;;;;;5215943;28;20806;-49
2023/01/13 12:37:44;;;;;;;11.13;4.03;;;10.10;99.90;;;;;;5249149;28;20964;-51
2023/01/13 12:40:25;;;;;;;13.13;2.70;;;10.10;99.90;;;;;;5241145;28;20820;-52
2023/01/13 12:46:20;;;;;;;26.17;7.87;;;10.20;99.90;;;;;;5242141;28;20543;-52
2023/01/13 12:48:55;;;;;;;8.90;3.00;;;10.20;99.90;;;;;;5241493;28;20448;-53
2023/01/13 12:51:32;;;;;;;5.13;1.30;;;10.10;99.90;;;;;;5241841;28;20436;-51
2023/01/13 12:54:31;;;;;;;6.10;2.07;;;10.20;99.90;;;;;;5224114;28;20439;-53
2023/01/13 12:57:18;;;;;;;8.53;1.43;;;10.10;99.90;;;;;;5239923;28;20465;-52
2023/01/13 13:00:03;;;;;;;5.03;1.70;;;10.20;99.90;;;;;;5249966;28;20456;-52
2023/01/13 13:02:42;;;;;;;4.67;1.20;;;10.20;99.90;;;;;;5250722;28;20454;-53
2023/01/13 13:05:13;;;;;;;10.97;2.70;;;10.10;99.90;;;;;;5247240;28;20818;-51
2023/01/13 13:07:50;;;;;;;1.90;1.53;;;10.00;99.90;;;;;;5227711;28;20437;-51
2023/01/13 13:10:31;;;;;;;14.33;2.83;;;10.10;99.90;;;;;;5210563;28;20270;-51
2023/01/13 13:13:18;;;;;;;8.80;2.23;;;10.00;99.90;;;;;;5212506;28;20806;-51
2023/01/13 13:15:50;;;;;;;2.40;2.17;;;9.90;99.90;;;;;;5242999;28;20548;-52
2023/01/13 13:18:25;;;;;;;7.87;2.17;;;9.90;99.90;;;;;;5225444;28;20495;-53
2023/01/13 13:21:07;;;;;;;3.37;1.63;;;9.70;99.90;;;;;;5230327;28;20468;-52
2023/01/13 13:24:09;;;;;;;3.63;1.77;;;9.80;99.90;;;;;;5222857;28;20464;-51
2023/01/13 13:26:45;;;;;;;3.23;1.53;;;10.00;99.90;;;;;;5247263;28;20470;-51
2023/01/13 13:29:37;;;;;;;5.40;2.70;;;9.90;99.90;;;;;;5229394;28;20472;-50
2023/01/13 13:32:19;;;;;;;4.40;1.37;;;10.00;99.90;;;;;;5249865;28;20438;-50
2023/01/13 13:35:11;;;;;;;6.30;2.30;;;9.90;99.90;;;;;;5233237;28;20439;-51
2023/01/13 13:46:47;;;;;;;3.73;1.73;;;10.30;99.90;;;;;;5245529;28;20425;-52
2023/01/13 13:49:20;;;;;;;4.40;1.53;;;10.10;99.90;;;;;;5252551;28;20443;-51
2023/01/13 13:51:51;;;;;;;4.60;3.47;;;9.90;99.90;;;;;;5247919;28;20424;-54
2023/01/13 13:54:22;;;;;;;4.13;1.90;;;10.00;99.90;;;;;;5258166;28;20448;-52
2023/01/13 13:56:53;;;;;;;4.70;1.70;;;9.90;99.90;;;;;;5256185;28;20440;-51
2023/01/13 13:59:29;;;;;;;4.80;1.40;;;10.00;99.90;;;;;;5253230;28;20662;-55
2023/01/13 14:02:02;;;;;;;6.50;1.30;;;10.00;99.90;;;;;;5232532;28;20177;-56
2023/01/13 14:04:35;;;;;;;7.20;1.60;;;9.90;99.90;;;;;;5230218;28;20468;-50
2023/01/13 14:07:19;;;;;;;3.70;1.93;;;9.80;99.90;;;;;;5256235;28;20732;-50
2023/01/13 14:09:53;;;;;;;4.60;1.80;;;9.60;99.90;;;;;;5252713;28;20459;-51
2023/01/13 14:12:26;;;;;;;4.00;1.63;;;9.70;99.90;;;;;;5256407;28;21007;-51
2023/01/13 14:14:58;;;;;;;2.60;1.00;;;9.40;99.90;;;;;;5262867;28;21013;-52
2023/01/13 14:17:30;;;;;;;6.47;2.70;;;9.50;99.90;;;;;;5256721;28;20469;-51
2023/01/13 14:20:09;;;;;;;11.50;3.37;;;9.60;99.90;;;;;;5248716;28;20562;-53
2023/01/13 14:22:44;;;;;;;5.37;2.10;;;9.70;99.90;;;;;;5236917;28;20978;-50
2023/01/13 14:25:49;;;;;;;2.83;1.23;;;9.80;99.90;;;;;;5253673;28;20525;-52
2023/01/13 14:28:39;;;;;;;4.97;1.80;;;9.70;99.90;;;;;;5198052;28;21818;-51
2023/01/13 14:31:12;;;;;;;6.20;1.40;;;9.70;99.90;;;;;;5256687;28;20428;-50
2023/01/13 14:33:46;;;;;;;8.57;1.73;;;9.80;99.90;;;;;;5259957;28;20453;-52
2023/01/13 14:36:21;;;;;;;10.97;3.30;;;9.90;99.90;;;;;;5256251;28;20444;-51
2023/01/13 14:39:01;;;;;;;4.43;2.30;;;9.90;99.90;;;;;;5249994;28;20473;-51
2023/01/13 14:41:36;;;;;;;3.17;1.57;;;9.90;99.90;;;;;;5241156;28;20807;-53
2023/01/13 14:44:13;;;;;;;6.40;1.10;;;9.80;99.90;;;;;;5243507;28;20478;-52
2023/01/13 14:46:44;;;;;;;3.43;1.30;;;9.90;99.90;;;;;;5250768;28;20947;-52